HEART2 EFKU-EFRO

Flight info

Callsign HEART2
Flight time 1h 29m
Altitude 15000
Route N27C
Aircraft F35/M-SDGIRUY/C

Departure

Time 2026-04-20 13:51
Airport Kuopio Airport (EFKU)

Arrival

Time 2026-04-20 15:20
Airport Rovaniemi Airport (EFRO)
Time Latitude Longitude Altitude Speed Heading
2026-04-20 13:42 63.00378 27.79081 317 ft 0 kts 71°
2026-04-20 13:43 63.00376 27.79105 317 ft 7 kts 107°
2026-04-20 13:43 63.00324 27.79179 316 ft 9 kts 156°
2026-04-20 13:43 63.00245 27.79256 314 ft 15 kts 156°
2026-04-20 13:43 63.00200 27.79319 314 ft 5 kts 117°
2026-04-20 13:44 63.00197 27.79338 314 ft 0 kts 105°
2026-04-20 13:45 63.00198 27.79339 314 ft 1 kts 99°
2026-04-20 13:45 63.00223 27.79516 311 ft 20 kts 69°
2026-04-20 13:45 63.00196 27.79732 312 ft 11 kts 125°
2026-04-20 13:45 63.00148 27.79842 314 ft 8 kts 149°
2026-04-20 13:46 63.00094 27.79895 316 ft 13 kts 158°
2026-04-20 13:46 62.99999 27.79982 319 ft 14 kts 156°
2026-04-20 13:46 62.99909 27.80067 320 ft 14 kts 157°
2026-04-20 13:46 62.99822 27.80141 321 ft 13 kts 159°
2026-04-20 13:47 62.99775 27.80182 323 ft 13 kts 156°
2026-04-20 13:47 62.99641 27.80309 328 ft 22 kts 158°
2026-04-20 13:47 62.99506 27.80440 327 ft 21 kts 156°
2026-04-20 13:47 62.99442 27.80631 329 ft 13 kts 88°
2026-04-20 13:48 62.99445 27.80676 327 ft 0 kts 75°
2026-04-20 13:48 62.99445 27.80677 327 ft 0 kts 75°
2026-04-20 13:49 62.99452 27.80714 326 ft 0 kts 65°
2026-04-20 13:49 62.99459 27.80740 323 ft 4 kts 56°
2026-04-20 13:49 62.99501 27.80826 321 ft 5 kts 38°
2026-04-20 13:49 62.99517 27.80852 323 ft 2 kts 28°
2026-04-20 13:50 62.99541 27.80844 322 ft 0 kts 339°
2026-04-20 13:50 62.99620 27.80771 325 ft 85 kts 338°
2026-04-20 13:50 63.00919 27.79572 643 ft 288 kts 337°
2026-04-20 13:51 63.02883 27.78041 1859 ft 251 kts 348°
2026-04-20 13:51 63.04885 27.78376 4206 ft 342 kts 13°
2026-04-20 13:51 63.07038 27.79752 6582 ft 318 kts 20°
2026-04-20 13:51 63.09109 27.81521 9115 ft 325 kts 21°
2026-04-20 13:52 63.11250 27.83460 11712 ft 344 kts 22°
2026-04-20 13:52 63.13558 27.85633 12608 ft 363 kts 23°
2026-04-20 13:52 63.15862 27.87915 13327 ft 364 kts 24°
2026-04-20 13:52 63.18167 27.90314 14012 ft 368 kts 25°
2026-04-20 13:53 63.20482 27.92835 14371 ft 371 kts 26°
2026-04-20 13:53 63.22773 27.95445 14533 ft 372 kts 27°
2026-04-20 13:53 63.25050 27.98158 14610 ft 371 kts 28°
2026-04-20 13:53 63.27308 28.00968 14645 ft 372 kts 30°
2026-04-20 13:54 63.29575 28.03716 14663 ft 371 kts 24°
2026-04-20 13:54 63.31955 28.05967 14673 ft 371 kts 21°
2026-04-20 13:54 63.34377 28.08014 14679 ft 372 kts 20°
2026-04-20 13:54 63.36804 28.09965 14683 ft 371 kts 19°
2026-04-20 13:55 63.39208 28.11857 14683 ft 367 kts 19°
2026-04-20 13:55 63.41602 28.13724 14683 ft 365 kts 19°
2026-04-20 13:55 63.43990 28.15584 14682 ft 350 kts 19°
2026-04-20 13:55 63.46301 28.17264 14682 ft 349 kts 15°
2026-04-20 13:56 63.48641 28.18644 14683 ft 349 kts 13°
2026-04-20 13:56 63.50992 28.19900 14684 ft 348 kts 12°
2026-04-20 13:56 63.53353 28.21106 14682 ft 346 kts 12°
2026-04-20 13:56 63.55694 28.22258 15109 ft 330 kts 13°
2026-04-20 13:57 63.57915 28.23271 15054 ft 326 kts 12°
2026-04-20 13:57 63.60127 28.24248 15033 ft 325 kts 12°
2026-04-20 13:57 63.62443 28.25265 15033 ft 349 kts 12°
2026-04-20 13:57 63.64788 28.26297 15030 ft 344 kts 12°
2026-04-20 13:58 63.67126 28.27329 15024 ft 343 kts 12°
2026-04-20 13:58 63.69457 28.28363 15023 ft 342 kts 12°
2026-04-20 13:58 63.71765 28.29395 15019 ft 341 kts 12°
2026-04-20 13:58 63.74082 28.30440 15021 ft 333 kts 12°
2026-04-20 13:59 63.76370 28.31477 15019 ft 335 kts 12°
2026-04-20 13:59 63.78657 28.32521 15018 ft 337 kts 12°
2026-04-20 13:59 63.80943 28.33570 15018 ft 335 kts 12°
2026-04-20 13:59 63.83233 28.34629 15008 ft 335 kts 12°
2026-04-20 14:00 63.85506 28.35684 15012 ft 326 kts 12°
2026-04-20 14:00 63.87748 28.36730 15011 ft 328 kts 12°
2026-04-20 14:00 63.90079 28.37829 15013 ft 351 kts 12°
2026-04-20 14:00 63.92454 28.38957 15018 ft 348 kts 12°
2026-04-20 14:01 63.94823 28.40089 15023 ft 349 kts 12°
2026-04-20 14:01 63.97146 28.41466 15027 ft 346 kts 25°
2026-04-20 14:01 63.99038 28.44824 15073 ft 350 kts 51°
2026-04-20 14:01 64.00037 28.49877 15146 ft 355 kts 69°
2026-04-20 14:02 64.01255 28.54685 15008 ft 347 kts 47°
2026-04-20 14:02 64.02979 28.58582 14906 ft 347 kts 43°
2026-04-20 14:02 64.04685 28.62499 14818 ft 346 kts 44°
2026-04-20 14:02 64.06392 28.66372 15505 ft 349 kts 41°
2026-04-20 14:03 64.08153 28.70180 16378 ft 352 kts 42°
2026-04-20 14:03 64.09946 28.74122 17216 ft 363 kts 43°
2026-04-20 14:03 64.11703 28.78193 17933 ft 362 kts 43°
2026-04-20 14:03 64.13568 28.82084 18957 ft 365 kts 41°
2026-04-20 14:04 64.15543 28.85752 19970 ft 366 kts 34°
2026-04-20 14:04 64.17671 28.88969 20957 ft 368 kts 28°
2026-04-20 14:04 64.19824 28.92309 21226 ft 375 kts 38°
2026-04-20 14:04 64.21721 28.96410 20811 ft 375 kts 46°
2026-04-20 14:05 64.23101 29.01450 20483 ft 373 kts 71°
2026-04-20 14:05 64.23404 29.07590 20209 ft 385 kts 83°
2026-04-20 14:05 64.23170 29.13776 20332 ft 396 kts 98°
2026-04-20 14:05 64.22310 29.19821 20323 ft 403 kts 109°
2026-04-20 14:06 64.20844 29.25168 20315 ft 410 kts 133°
2026-04-20 14:06 64.18296 29.28939 20178 ft 502 kts 157°
2026-04-20 14:06 64.15063 29.29841 20132 ft 443 kts 187°
2026-04-20 14:06 64.12183 29.28471 19994 ft 434 kts 191°
2026-04-20 14:07 64.08600 29.26926 19923 ft 550 kts 191°
2026-04-20 14:07 64.04870 29.24878 20033 ft 547 kts 198°
2026-04-20 14:07 64.01221 29.21931 20126 ft 553 kts 196°
2026-04-20 14:07 63.97473 29.19815 20129 ft 556 kts 193°
2026-04-20 14:08 63.93720 29.17738 20193 ft 566 kts 194°
2026-04-20 14:08 63.89777 29.15568 20301 ft 554 kts 193°
2026-04-20 14:08 63.86055 29.13495 20314 ft 550 kts 193°
2026-04-20 14:08 63.82325 29.11443 20345 ft 552 kts 192°
2026-04-20 14:09 63.78574 29.09558 20369 ft 553 kts 192°
2026-04-20 14:09 63.74842 29.07586 20358 ft 552 kts 193°
2026-04-20 14:09 63.71147 29.05347 19581 ft 544 kts 194°
2026-04-20 14:09 63.67454 29.03603 19049 ft 539 kts 191°
2026-04-20 14:10 63.63815 29.01696 18518 ft 535 kts 195°
2026-04-20 14:10 63.60246 29.00074 18640 ft 514 kts 162°
2026-04-20 14:10 63.58676 29.06026 19476 ft 478 kts 58°
2026-04-20 14:10 63.61624 29.09266 20977 ft 488 kts 14°
2026-04-20 14:11 63.64990 29.10892 22072 ft 496 kts 11°
2026-04-20 14:11 63.68422 29.12064 23118 ft 501 kts
2026-04-20 14:11 63.71860 29.12779 23455 ft 508 kts
2026-04-20 14:11 63.75329 29.13172 21822 ft 498 kts
2026-04-20 14:12 63.78770 29.12908 20988 ft 491 kts 358°
2026-04-20 14:12 63.82186 29.12180 20961 ft 495 kts 353°
2026-04-20 14:12 63.85549 29.10518 20847 ft 498 kts 346°
2026-04-20 14:12 63.88785 29.07888 19869 ft 493 kts 343°
2026-04-20 14:13 63.92111 29.06384 19082 ft 485 kts 358°
2026-04-20 14:13 63.95495 29.06660 19008 ft 524 kts
2026-04-20 14:13 63.99432 29.08338 19023 ft 562 kts 15°
2026-04-20 14:13 64.03017 29.10470 19648 ft 539 kts 12°
2026-04-20 14:14 64.06435 29.12090 20081 ft 489 kts 12°
2026-04-20 14:14 64.09637 29.13351 20294 ft 441 kts
2026-04-20 14:14 64.12721 29.14243 20234 ft 488 kts
2026-04-20 14:14 64.16360 29.15464 20183 ft 500 kts
2026-04-20 14:15 64.19473 29.16698 20330 ft 414 kts
2026-04-20 14:15 64.22155 29.17771 20335 ft 396 kts 10°
2026-04-20 14:15 64.25036 29.18799 20286 ft 473 kts
2026-04-20 14:15 64.28304 29.20049 20373 ft 457 kts 11°
2026-04-20 14:16 64.31117 29.21884 20429 ft 387 kts 24°
2026-04-20 14:16 64.33426 29.24795 20311 ft 388 kts 29°
2026-04-20 14:16 64.35523 29.28874 20152 ft 404 kts 46°
2026-04-20 14:16 64.37285 29.34551 20269 ft 523 kts 58°
2026-04-20 14:17 64.38462 29.42410 20329 ft 485 kts 79°
2026-04-20 14:17 64.37001 29.45067 20515 ft 314 kts 194°
2026-04-20 14:17 64.34707 29.43739 20300 ft 394 kts 197°
2026-04-20 14:17 64.31781 29.41565 20144 ft 472 kts 199°
2026-04-20 14:18 64.28698 29.39355 20233 ft 457 kts 194°
2026-04-20 14:18 64.25539 29.37852 20983 ft 468 kts 189°
2026-04-20 14:18 64.22276 29.37047 21767 ft 475 kts 182°
2026-04-20 14:18 64.18928 29.36995 22235 ft 489 kts 178°
2026-04-20 14:19 64.15989 29.39777 22144 ft 469 kts 127°
2026-04-20 14:19 64.14320 29.45943 21413 ft 458 kts 130°
2026-04-20 14:19 64.11615 29.49657 20164 ft 456 kts 162°
2026-04-20 14:19 64.08351 29.49323 20258 ft 476 kts 192°
2026-04-20 14:20 64.05107 29.47525 20406 ft 480 kts 194°
2026-04-20 14:20 64.01804 29.45493 20549 ft 491 kts 194°
2026-04-20 14:20 63.98479 29.43511 20607 ft 494 kts 195°
2026-04-20 14:20 63.95152 29.41575 20679 ft 495 kts 193°
2026-04-20 14:21 63.91799 29.39846 20752 ft 494 kts 193°
2026-04-20 14:21 63.88452 29.37982 20775 ft 495 kts 194°
2026-04-20 14:21 63.85130 29.35973 20690 ft 494 kts 194°
2026-04-20 14:21 63.81793 29.34101 20616 ft 494 kts 194°
2026-04-20 14:22 63.78420 29.32288 20586 ft 521 kts 192°
2026-04-20 14:22 63.74598 29.30249 20513 ft 589 kts 195°
2026-04-20 14:22 63.71011 29.27749 20967 ft 495 kts 198°
2026-04-20 14:22 63.68095 29.25521 20420 ft 401 kts 202°
2026-04-20 14:23 63.65706 29.24138 20368 ft 334 kts 183°
2026-04-20 14:23 63.62962 29.23341 19968 ft 495 kts 190°
2026-04-20 14:23 63.59122 29.21762 19873 ft 574 kts 163°
2026-04-20 14:23 63.55758 29.23287 21463 ft 454 kts 166°
2026-04-20 14:24 63.52783 29.25070 20614 ft 482 kts 163°
2026-04-20 14:24 63.49595 29.26946 20060 ft 454 kts 159°
2026-04-20 14:24 63.47020 29.30625 19989 ft 449 kts 123°
2026-04-20 14:24 63.45449 29.35761 20616 ft 370 kts 136°
2026-04-20 14:25 63.43394 29.38855 20572 ft 383 kts 144°
2026-04-20 14:25 63.40617 29.42066 20563 ft 518 kts 153°
2026-04-20 14:25 63.37188 29.45294 20305 ft 507 kts 154°
2026-04-20 14:25 63.34162 29.48133 20431 ft 440 kts 154°
2026-04-20 14:26 63.32312 29.46372 20420 ft 291 kts 305°
2026-04-20 14:26 63.33266 29.46973 20106 ft 261 kts 120°
2026-04-20 14:26 63.32060 29.50214 19637 ft 265 kts 126°
2026-04-20 14:26 63.30604 29.52829 19336 ft 275 kts 137°
2026-04-20 14:27 63.29513 29.54236 19253 ft 276 kts 146°
2026-04-20 14:27 63.27016 29.56240 19057 ft 312 kts 159°
2026-04-20 14:27 63.25518 29.57151 18955 ft 355 kts 160°
2026-04-20 14:27 63.22083 29.57871 19020 ft 439 kts 178°
2026-04-20 14:28 63.20187 29.57656 19757 ft 419 kts 185°
2026-04-20 14:28 63.16984 29.55729 20577 ft 535 kts 197°
2026-04-20 14:28 63.13420 29.52757 20916 ft 539 kts 219°
2026-04-20 14:28 63.11075 29.45630 21114 ft 612 kts 239°
2026-04-20 14:29 63.08876 29.38083 20346 ft 565 kts 240°
2026-04-20 14:29 63.07622 29.29593 20245 ft 565 kts 265°
2026-04-20 14:29 63.07361 29.21799 20549 ft 459 kts 271°
2026-04-20 14:29 63.07840 29.15344 20834 ft 416 kts 294°
2026-04-20 14:30 63.09602 29.09791 20370 ft 508 kts 314°
2026-04-20 14:30 63.11643 29.03823 20231 ft 448 kts 317°
2026-04-20 14:30 63.13958 28.99550 20335 ft 437 kts 331°
2026-04-20 14:30 63.16445 28.96016 20338 ft 411 kts 336°
2026-04-20 14:31 63.19112 28.93339 20496 ft 442 kts 339°
2026-04-20 14:31 63.21885 28.90580 20350 ft 435 kts 341°
2026-04-20 14:31 63.24595 28.87855 20326 ft 432 kts 340°
2026-04-20 14:31 63.27376 28.85340 20579 ft 437 kts 340°
2026-04-20 14:32 63.30106 28.82708 20437 ft 429 kts 340°
2026-04-20 14:32 63.32823 28.80069 20349 ft 427 kts 340°
2026-04-20 14:32 63.35537 28.77376 20231 ft 423 kts 341°
2026-04-20 14:32 63.38265 28.74848 20572 ft 425 kts 342°
2026-04-20 14:33 63.41073 28.72878 21034 ft 426 kts 346°
2026-04-20 14:33 63.43860 28.70717 21902 ft 420 kts 341°
2026-04-20 14:33 63.46571 28.67900 23575 ft 436 kts 336°
2026-04-20 14:33 63.49321 28.64662 24205 ft 447 kts 335°
2026-04-20 14:34 63.52011 28.61267 23095 ft 438 kts 333°
2026-04-20 14:34 63.54606 28.57712 22001 ft 434 kts 332°
2026-04-20 14:34 63.57146 28.54531 20975 ft 396 kts 340°
2026-04-20 14:34 63.59513 28.52222 20794 ft 346 kts 340°
2026-04-20 14:35 63.61572 28.50143 20708 ft 303 kts 340°
2026-04-20 14:35 63.63359 28.48284 20560 ft 266 kts 339°
2026-04-20 14:35 63.65389 28.46083 20202 ft 396 kts 338°
2026-04-20 14:35 63.68075 28.43219 20200 ft 398 kts 347°
2026-04-20 14:36 63.70399 28.44145 20204 ft 317 kts 36°
2026-04-20 14:36 63.71417 28.48126 19420 ft 290 kts 79°
2026-04-20 14:36 63.71316 28.52326 19148 ft 248 kts 90°
2026-04-20 14:36 63.71086 28.55869 18956 ft 208 kts 92°
2026-04-20 14:37 63.70861 28.58721 18683 ft 166 kts 92°
2026-04-20 14:37 63.70661 28.60963 18184 ft 128 kts 91°
2026-04-20 14:37 63.70459 28.64227 18023 ft 306 kts 91°
2026-04-20 14:37 63.70220 28.69550 18400 ft 349 kts 92°
2026-04-20 14:38 63.69927 28.75064 18774 ft 353 kts 92°
2026-04-20 14:38 63.69637 28.80589 19129 ft 357 kts 92°
2026-04-20 14:38 63.69342 28.86153 19412 ft 361 kts 92°
2026-04-20 14:38 63.68977 28.91714 19486 ft 362 kts 100°
2026-04-20 14:39 63.68006 28.97018 19564 ft 370 kts 114°
2026-04-20 14:39 63.66452 29.01693 19579 ft 377 kts 133°
2026-04-20 14:39 63.64157 29.04673 19600 ft 393 kts 162°
2026-04-20 14:39 63.61443 29.04621 19381 ft 396 kts 194°
2026-04-20 14:40 63.58787 29.02983 19359 ft 396 kts 194°
2026-04-20 14:40 63.56130 29.01324 19409 ft 395 kts 195°
2026-04-20 14:40 63.53507 28.99749 19453 ft 395 kts 189°
2026-04-20 14:40 63.50768 28.99354 19558 ft 396 kts 180°
2026-04-20 14:41 63.48016 28.99205 19663 ft 396 kts 178°
2026-04-20 14:41 63.45261 28.99340 19743 ft 396 kts 175°
2026-04-20 14:41 63.42508 28.99604 19829 ft 396 kts 175°
2026-04-20 14:41 63.39753 28.99879 19922 ft 397 kts 175°
2026-04-20 14:42 63.36988 29.00155 20024 ft 398 kts 175°
2026-04-20 14:42 63.34315 29.01277 20540 ft 397 kts 158°
2026-04-20 14:42 63.31888 29.04045 20534 ft 384 kts 137°
2026-04-20 14:42 63.30111 29.08287 21266 ft 373 kts 120°
2026-04-20 14:43 63.28936 29.13433 22532 ft 378 kts 101°
2026-04-20 14:43 63.28343 29.19108 22278 ft 369 kts 92°
2026-04-20 14:43 63.28102 29.24770 21854 ft 364 kts 88°
2026-04-20 14:43 63.28055 29.30357 21440 ft 360 kts 84°
2026-04-20 14:44 63.28209 29.35853 21049 ft 354 kts 80°
2026-04-20 14:44 63.28402 29.41319 20723 ft 355 kts 82°
2026-04-20 14:44 63.27744 29.46500 20067 ft 378 kts 136°
2026-04-20 14:44 63.25188 29.48041 18553 ft 398 kts 179°
2026-04-20 14:45 63.21819 29.47723 18743 ft 508 kts 181°
2026-04-20 14:45 63.18257 29.47164 18884 ft 512 kts 183°
2026-04-20 14:45 63.14698 29.46330 19067 ft 517 kts 185°
2026-04-20 14:45 63.11166 29.44973 19265 ft 518 kts 198°
2026-04-20 14:46 63.09278 29.42996 19248 ft 515 kts 213°
2026-04-20 14:46 63.06794 29.37231 18884 ft 520 kts 235°
2026-04-20 14:46 63.05234 29.30231 18609 ft 508 kts 260°
2026-04-20 14:46 63.05066 29.22584 18819 ft 498 kts 275°
2026-04-20 14:47 63.05551 29.15073 19866 ft 498 kts 289°
2026-04-20 14:47 63.06596 29.07801 20325 ft 508 kts 293°
2026-04-20 14:47 63.07969 29.00779 20026 ft 500 kts 296°
2026-04-20 14:48 63.12449 29.03253 18252 ft 467 kts 65°
2026-04-20 14:48 63.13699 29.09759 18292 ft 461 kts 63°
2026-04-20 14:48 63.15231 29.15929 18408 ft 458 kts 56°
2026-04-20 14:48 63.17003 29.21761 18558 ft 455 kts 50°
2026-04-20 14:49 63.19271 29.26629 18729 ft 456 kts 35°
2026-04-20 14:49 63.22054 29.29943 18983 ft 456 kts 22°
2026-04-20 14:49 63.25053 29.32297 19230 ft 457 kts 15°
2026-04-20 14:49 63.28226 29.33171 19536 ft 462 kts
2026-04-20 14:50 63.31450 29.32948 19782 ft 465 kts 356°
2026-04-20 14:50 63.34664 29.32020 19963 ft 467 kts 352°
2026-04-20 14:50 63.37850 29.30582 20024 ft 467 kts 348°
2026-04-20 14:50 63.40993 29.28666 20105 ft 470 kts 346°
2026-04-20 14:51 63.44126 29.26570 20178 ft 469 kts 345°
2026-04-20 14:51 63.47238 29.24344 20256 ft 471 kts 345°
2026-04-20 14:51 63.50340 29.21940 20265 ft 470 kts 343°
2026-04-20 14:51 63.53411 29.19386 20254 ft 472 kts 342°
2026-04-20 14:52 63.56478 29.16785 20240 ft 470 kts 342°
2026-04-20 14:52 63.59630 29.14131 20225 ft 499 kts 342°
2026-04-20 14:52 63.62850 29.11405 20196 ft 497 kts 340°
2026-04-20 14:52 63.65998 29.08278 20415 ft 500 kts 338°
2026-04-20 14:53 63.69191 29.05291 20317 ft 497 kts 341°
2026-04-20 14:53 63.72321 29.02270 20209 ft 494 kts 339°
2026-04-20 14:53 63.75495 28.99158 20258 ft 495 kts 339°
2026-04-20 14:53 63.78688 28.96257 20299 ft 495 kts 342°
2026-04-20 14:54 63.81914 28.93484 20277 ft 494 kts 341°
2026-04-20 14:54 63.85122 28.90639 20274 ft 496 kts 340°
2026-04-20 14:54 63.88318 28.87740 20287 ft 493 kts 340°
2026-04-20 14:54 63.91511 28.84769 20349 ft 496 kts 340°
2026-04-20 14:55 63.94700 28.81807 20391 ft 495 kts 340°
2026-04-20 14:55 63.98133 28.78638 20449 ft 550 kts 340°
2026-04-20 14:55 64.01673 28.75300 20498 ft 552 kts 339°
2026-04-20 14:55 64.05222 28.71958 20427 ft 535 kts 339°
2026-04-20 14:56 64.08411 28.68922 20360 ft 497 kts 339°
2026-04-20 14:56 64.11585 28.65889 20308 ft 494 kts 339°
2026-04-20 14:56 64.14764 28.62849 20238 ft 493 kts 339°
2026-04-20 14:56 64.17925 28.59825 20160 ft 494 kts 339°
2026-04-20 14:57 64.21088 28.56796 20078 ft 492 kts 339°
2026-04-20 14:57 64.24255 28.53757 20008 ft 493 kts 339°
2026-04-20 14:57 64.27418 28.50718 19940 ft 491 kts 339°
2026-04-20 14:57 64.30576 28.47701 20036 ft 493 kts 339°
2026-04-20 14:58 64.33743 28.44683 20159 ft 491 kts 339°
2026-04-20 14:58 64.36921 28.41658 20316 ft 494 kts 339°
2026-04-20 14:58 64.40096 28.38633 20314 ft 493 kts 339°
2026-04-20 14:58 64.43259 28.35602 20362 ft 493 kts 339°
2026-04-20 14:59 64.46438 28.32547 20440 ft 493 kts 339°
2026-04-20 14:59 64.49585 28.29411 20485 ft 496 kts 338°
2026-04-20 14:59 64.52769 28.26414 20479 ft 494 kts 340°
2026-04-20 14:59 64.55941 28.23373 20541 ft 495 kts 337°
2026-04-20 15:00 64.59099 28.20184 20404 ft 492 kts 338°
2026-04-20 15:00 64.62206 28.17090 20378 ft 493 kts 338°
2026-04-20 15:00 64.65365 28.13964 20357 ft 492 kts 338°
2026-04-20 15:00 64.68519 28.10829 20368 ft 493 kts 338°
2026-04-20 15:01 64.71681 28.07732 20398 ft 492 kts 338°
2026-04-20 15:01 64.74838 28.04641 20436 ft 493 kts 338°
2026-04-20 15:01 64.78004 28.01513 20464 ft 493 kts 337°
2026-04-20 15:01 64.81135 27.98240 20461 ft 494 kts 338°
2026-04-20 15:02 64.84290 27.95105 20363 ft 491 kts 338°
2026-04-20 15:02 64.87430 27.91837 20301 ft 489 kts 338°
2026-04-20 15:02 64.90555 27.88508 20404 ft 489 kts 336°
2026-04-20 15:02 64.93664 27.85276 20756 ft 484 kts 341°
2026-04-20 15:03 64.96933 27.82624 21143 ft 499 kts 343°
2026-04-20 15:03 65.00062 27.79391 20244 ft 497 kts 332°
2026-04-20 15:03 65.03115 27.75704 20103 ft 493 kts 336°
2026-04-20 15:03 65.06235 27.72462 20211 ft 492 kts 338°
2026-04-20 15:04 65.09491 27.69134 20352 ft 534 kts 337°
2026-04-20 15:04 65.12888 27.65687 20366 ft 540 kts 338°
2026-04-20 15:04 65.16435 27.62183 20378 ft 535 kts 338°
2026-04-20 15:04 65.19727 27.58933 20443 ft 525 kts 338°
2026-04-20 15:05 65.23166 27.55374 20513 ft 542 kts 335°
2026-04-20 15:05 65.26602 27.51788 20498 ft 540 kts 336°
2026-04-20 15:05 65.30084 27.48276 20396 ft 528 kts 344°
2026-04-20 15:05 65.33410 27.45333 20715 ft 520 kts 335°
2026-04-20 15:06 65.36615 27.41955 20198 ft 511 kts 339°
2026-04-20 15:06 65.40065 27.39058 20543 ft 534 kts 340°
2026-04-20 15:06 65.43534 27.35821 20865 ft 535 kts 336°
2026-04-20 15:06 65.46798 27.31756 20578 ft 530 kts 329°
2026-04-20 15:07 65.50053 27.27546 20366 ft 525 kts 341°
2026-04-20 15:07 65.53629 27.24536 20560 ft 527 kts 342°
2026-04-20 15:07 65.56845 27.22282 20847 ft 477 kts 344°
2026-04-20 15:07 65.60322 27.19310 20102 ft 562 kts 331°
2026-04-20 15:08 65.63739 27.14007 19761 ft 506 kts 320°
2026-04-20 15:08 65.66600 27.08588 19721 ft 560 kts 332°
2026-04-20 15:08 65.70132 27.04985 20823 ft 550 kts 338°
2026-04-20 15:08 65.73585 27.01688 20131 ft 505 kts 336°
2026-04-20 15:09 65.76606 26.98199 19915 ft 500 kts 335°
2026-04-20 15:09 65.80263 26.94465 20192 ft 600 kts 337°
2026-04-20 15:09 65.83968 26.90718 20718 ft 531 kts 338°
2026-04-20 15:09 65.87261 26.87326 20544 ft 508 kts 333°
2026-04-20 15:10 65.90677 26.83652 20416 ft 551 kts 334°
2026-04-20 15:10 65.94199 26.79554 20463 ft 566 kts 335°
2026-04-20 15:10 65.97748 26.75407 20041 ft 539 kts 335°
2026-04-20 15:10 66.00775 26.71941 20307 ft 440 kts 332°
2026-04-20 15:11 66.03997 26.68061 19831 ft 585 kts 333°
2026-04-20 15:11 66.07602 26.63830 19254 ft 555 kts 335°
2026-04-20 15:11 66.11157 26.59914 18540 ft 557 kts 334°
2026-04-20 15:11 66.14498 26.55821 17486 ft 543 kts 332°
2026-04-20 15:12 66.17598 26.52400 17783 ft 395 kts 345°
2026-04-20 15:12 66.20109 26.50779 16590 ft 434 kts 339°
2026-04-20 15:12 66.23208 26.46852 15267 ft 569 kts 332°
2026-04-20 15:12 66.26853 26.42411 14532 ft 592 kts 335°
2026-04-20 15:13 66.29858 26.37288 14639 ft 468 kts 326°
2026-04-20 15:13 66.32864 26.32652 13171 ft 507 kts 325°
2026-04-20 15:13 66.34638 26.29477 13124 ft 445 kts 321°
2026-04-20 15:13 66.36032 26.20877 13130 ft 409 kts 269°
2026-04-20 15:14 66.35983 26.14264 10945 ft 389 kts 272°
2026-04-20 15:14 66.36006 26.09835 9983 ft 381 kts 273°
2026-04-20 15:14 66.36208 26.01284 8967 ft 356 kts 277°
2026-04-20 15:14 66.36373 25.97319 8508 ft 339 kts 278°
2026-04-20 15:15 66.36609 25.91627 8033 ft 330 kts 278°
2026-04-20 15:15 66.36798 25.86090 7464 ft 310 kts 276°
2026-04-20 15:15 66.37047 25.80911 6915 ft 291 kts 283°
2026-04-20 15:15 66.37754 25.76431 6372 ft 268 kts 300°
2026-04-20 15:16 66.38789 25.72805 5876 ft 254 kts 314°
2026-04-20 15:16 66.40012 25.69745 5244 ft 245 kts 318°
2026-04-20 15:16 66.41300 25.66980 4621 ft 243 kts 322°
2026-04-20 15:16 66.42762 25.64976 3964 ft 239 kts 339°
2026-04-20 15:17 66.44381 25.64037 3207 ft 238 kts 352°
2026-04-20 15:17 66.46344 25.63830 2499 ft 289 kts
2026-04-20 15:17 66.48055 25.65618 2364 ft 264 kts 30°
2026-04-20 15:17 66.49434 25.68394 1994 ft 246 kts 41°
2026-04-20 15:18 66.50564 25.71207 1469 ft 205 kts 44°
2026-04-20 15:18 66.51460 25.73588 1019 ft 159 kts 44°
2026-04-20 15:18 66.52234 25.75232 920 ft 150 kts 33°
2026-04-20 15:18 66.53064 25.76687 963 ft 146 kts 33°
2026-04-20 15:19 66.53877 25.78149 847 ft 143 kts 34°
2026-04-20 15:19 66.54664 25.79637 750 ft 141 kts 31°
2026-04-20 15:19 66.55477 25.81110 665 ft 145 kts 34°
2026-04-20 15:19 66.56231 25.82522 635 ft 109 kts 39°
2026-04-20 15:20 66.56676 25.83365 639 ft 44 kts 35°
2026-04-20 15:20 66.57091 25.84129 640 ft 61 kts 38°
2026-04-20 15:20 66.57183 25.84293 639 ft 0 kts 17°
2026-04-20 15:20 66.57258 25.84251 640 ft 20 kts 317°
2026-04-20 15:21 66.57295 25.83873 639 ft 16 kts 278°
2026-04-20 15:21 66.57319 25.83502 645 ft 20 kts 276°
2026-04-20 15:21 66.57299 25.83236 651 ft 7 kts 201°
2026-04-20 15:21 66.57192 25.83260 654 ft 15 kts 175°
2026-04-20 15:22 66.57117 25.83223 654 ft 2 kts 208°
2026-04-20 15:22 66.57109 25.83165 655 ft 5 kts 262°
2026-04-20 15:22 66.57109 25.83153 655 ft 0 kts 261°